Time;durP1;ratioP1;P1;durP2;ratioP2;P2;SDS_P1;SDS_P2;PMS_P1;PMS_P2;Temp;Humidity;BMP_temperature;BMP_pressure;BME280_temperature;BME280_humidity;BME280_pressure;Samples;Min_cycle;Max_cycle;Signal;HPM_P1;HPM_P2
2023/12/11 00:02:13;;;;;;;22.25;4.20;;;12.10;80.70;;;;;;5018331;28;20026;-64
2023/12/11 00:04:38;;;;;;;19.02;5.55;;;12.10;80.70;;;;;;5035921;28;20037;-65
2023/12/11 00:07:04;;;;;;;25.40;5.00;;;12.10;80.70;;;;;;5034276;28;20083;-64
2023/12/11 00:09:30;;;;;;;20.60;4.18;;;12.10;80.70;;;;;;5040657;28;20033;-64
2023/12/11 00:11:57;;;;;;;18.75;4.18;;;12.10;80.70;;;;;;5035879;28;20032;-64
2023/12/11 00:14:22;;;;;;;21.63;4.15;;;12.10;80.70;;;;;;5039887;28;20131;-64
2023/12/11 00:16:48;;;;;;;24.75;5.63;;;12.10;80.70;;;;;;5040596;28;20426;-64
2023/12/11 00:19:14;;;;;;;21.98;4.72;;;12.10;80.70;;;;;;5017331;28;20036;-64
2023/12/11 00:21:41;;;;;;;16.52;4.68;;;12.00;80.70;;;;;;5016680;28;20187;-64
2023/12/11 00:24:06;;;;;;;17.58;4.07;;;12.00;80.70;;;;;;5041020;28;20049;-64
2023/12/11 00:26:32;;;;;;;19.63;3.90;;;12.00;80.70;;;;;;5047766;28;20020;-64
2023/12/11 00:28:58;;;;;;;22.52;4.70;;;12.00;80.60;;;;;;5056855;28;20025;-64
2023/12/11 00:31:24;;;;;;;20.40;4.75;;;12.10;80.70;;;;;;5056602;28;20335;-64
2023/12/11 00:33:49;;;;;;;22.75;4.85;;;12.00;80.60;;;;;;5039144;28;20048;-64
2023/12/11 00:36:15;;;;;;;19.38;4.25;;;12.00;80.60;;;;;;5036290;28;20029;-64
2023/12/11 00:38:41;;;;;;;24.02;4.68;;;12.00;80.60;;;;;;5055999;28;20025;-64
2023/12/11 00:41:07;;;;;;;23.60;4.35;;;12.00;80.60;;;;;;5057677;28;20029;-64
2023/12/11 00:43:33;;;;;;;24.08;5.10;;;12.00;80.60;;;;;;5057480;28;20108;-64
2023/12/11 00:45:59;;;;;;;21.88;4.20;;;12.00;80.50;;;;;;5054834;28;20100;-64
2023/12/11 00:48:25;;;;;;;15.23;3.80;;;12.00;80.50;;;;;;5056626;28;20017;-64
2023/12/11 00:50:51;;;;;;;22.58;5.00;;;12.00;80.50;;;;;;5057353;28;20033;-64
2023/12/11 00:53:16;;;;;;;24.85;5.00;;;12.00;80.50;;;;;;5039996;28;20029;-64
2023/12/11 00:55:42;;;;;;;17.88;3.85;;;12.00;80.50;;;;;;5055785;28;20060;-64
2023/12/11 00:58:09;;;;;;;20.48;5.10;;;12.00;80.50;;;;;;5068248;28;20024;-64
2023/12/11 01:00:34;;;;;;;21.45;5.03;;;12.00;80.50;;;;;;5058898;28;20035;-64
2023/12/11 01:03:00;;;;;;;25.33;5.47;;;12.00;80.50;;;;;;5074115;28;20020;-64
2023/12/11 01:05:26;;;;;;;23.30;4.10;;;12.00;80.40;;;;;;5064860;28;20078;-64
2023/12/11 01:07:52;;;;;;;24.02;4.70;;;12.00;80.40;;;;;;5055381;28;20111;-64
2023/12/11 01:10:18;;;;;;;18.08;4.53;;;12.00;80.40;;;;;;5068792;28;20024;-64
2023/12/11 01:12:44;;;;;;;21.27;4.93;;;12.00;80.40;;;;;;5039412;28;20134;-64
2023/12/11 01:15:10;;;;;;;24.40;4.60;;;12.00;80.40;;;;;;5036393;28;20021;-64
2023/12/11 01:17:36;;;;;;;22.13;4.65;;;11.90;80.40;;;;;;5066823;28;20035;-64
2023/12/11 01:20:02;;;;;;;17.02;4.07;;;11.90;80.40;;;;;;5073165;28;20060;-64
2023/12/11 01:22:28;;;;;;;20.98;4.60;;;11.90;80.30;;;;;;5049313;28;20028;-64
2023/12/11 01:24:54;;;;;;;23.48;5.53;;;12.00;80.30;;;;;;5074472;28;20106;-64
2023/12/11 01:27:20;;;;;;;26.23;5.00;;;12.00;80.30;;;;;;5050844;28;20120;-64
2023/12/11 01:29:45;;;;;;;21.88;4.70;;;12.00;80.30;;;;;;5039298;28;20021;-64
2023/12/11 01:32:11;;;;;;;21.10;3.83;;;12.00;80.30;;;;;;5073321;28;20062;-64
2023/12/11 01:34:37;;;;;;;21.50;5.38;;;12.00;80.20;;;;;;5076077;28;20068;-64
2023/12/11 01:37:03;;;;;;;20.70;3.78;;;12.00;80.20;;;;;;5062042;28;20033;-64
2023/12/11 01:39:29;;;;;;;23.08;4.47;;;12.00;80.10;;;;;;5056542;28;20028;-64
2023/12/11 01:41:54;;;;;;;19.80;5.20;;;12.00;80.10;;;;;;5074394;28;20044;-64
2023/12/11 01:44:20;;;;;;;21.77;4.70;;;12.00;80.00;;;;;;5047200;28;20092;-64
2023/12/11 01:46:46;;;;;;;18.35;5.00;;;12.00;79.90;;;;;;5045459;28;20049;-64
2023/12/11 01:49:13;;;;;;;23.70;5.05;;;12.00;79.90;;;;;;5061434;28;20043;-64
2023/12/11 01:51:39;;;;;;;23.33;5.30;;;12.00;79.90;;;;;;5075789;28;20036;-64
2023/12/11 01:54:05;;;;;;;22.02;4.90;;;12.00;79.90;;;;;;5044216;28;20032;-64
2023/12/11 01:56:31;;;;;;;16.52;3.58;;;11.90;79.90;;;;;;5070816;28;20361;-64
2023/12/11 01:58:57;;;;;;;24.90;4.07;;;12.00;80.60;;;;;;5055946;28;20397;-64
2023/12/11 02:01:26;;;;;;;21.80;4.75;;;12.00;79.90;;;;;;5072451;28;20090;-64
2023/12/11 02:03:52;;;;;;;22.15;3.63;;;11.90;79.80;;;;;;5057864;28;20040;-64
2023/12/11 02:06:17;;;;;;;22.80;5.03;;;11.90;79.80;;;;;;5038214;28;20461;-64
2023/12/11 02:08:45;;;;;;;19.30;4.15;;;11.90;79.90;;;;;;5052936;28;20705;-64
2023/12/11 02:11:12;;;;;;;24.05;5.40;;;12.00;79.80;;;;;;5055966;28;20086;-64
2023/12/11 02:13:39;;;;;;;28.15;5.57;;;12.00;79.80;;;;;;5054979;28;20150;-64
2023/12/11 02:16:06;;;;;;;25.35;4.20;;;12.00;79.80;;;;;;5054980;28;20063;-64
2023/12/11 02:18:32;;;;;;;21.67;4.32;;;12.00;79.80;;;;;;5054705;28;20029;-64
2023/12/11 02:20:57;;;;;;;19.67;4.60;;;12.00;79.80;;;;;;5041437;28;20028;-64
2023/12/11 02:23:32;;;;;;;19.08;4.63;;;12.00;79.80;;;;;;5059364;28;20025;-64
2023/12/11 02:26:15;;;;;;;13.93;4.40;;;12.00;79.90;;;;;;5064386;28;20020;-64
2023/12/11 02:28:41;;;;;;;20.60;4.35;;;12.00;79.80;;;;;;5064796;28;20033;-64
2023/12/11 02:31:07;;;;;;;21.90;4.68;;;12.00;79.90;;;;;;5059760;28;20457;-64
2023/12/11 02:33:33;;;;;;;19.35;3.65;;;12.00;79.90;;;;;;5061212;28;20028;-64
2023/12/11 02:35:59;;;;;;;15.85;4.03;;;12.00;80.00;;;;;;5069128;28;20036;-64
2023/12/11 02:38:25;;;;;;;19.20;4.10;;;12.00;80.00;;;;;;5066638;28;20398;-64
2023/12/11 02:40:50;;;;;;;21.77;4.07;;;12.00;80.00;;;;;;5054184;28;20345;-64
2023/12/11 02:43:16;;;;;;;23.48;4.25;;;12.00;80.10;;;;;;5055019;28;20025;-64
2023/12/11 02:45:42;;;;;;;16.98;4.90;;;12.00;80.10;;;;;;5048458;28;20029;-63
2023/12/11 02:48:09;;;;;;;22.27;3.97;;;12.00;80.00;;;;;;5052627;28;20357;-64
2023/12/11 02:50:34;;;;;;;16.48;4.05;;;12.00;80.10;;;;;;5055144;28;20029;-64
2023/12/11 02:53:02;;;;;;;19.08;4.93;;;12.00;80.10;;;;;;5053759;28;20032;-63
2023/12/11 02:55:28;;;;;;;21.30;4.32;;;12.00;80.20;;;;;;5053403;28;20024;-64
2023/12/11 02:58:00;;;;;;;19.85;4.38;;;12.00;80.40;;;;;;5036394;28;20394;-64
2023/12/11 03:00:27;;;;;;;15.27;3.72;;;12.00;81.20;;;;;;5054819;28;20094;-64
2023/12/11 03:02:53;;;;;;;17.45;3.92;;;12.00;80.60;;;;;;5055043;28;20033;-64
2023/12/11 03:05:19;;;;;;;19.55;3.83;;;12.00;80.80;;;;;;5053019;28;20017;-64
2023/12/11 03:07:45;;;;;;;19.77;4.43;;;12.00;80.90;;;;;;5037500;28;20344;-64
2023/12/11 03:10:11;;;;;;;20.05;4.97;;;12.00;81.00;;;;;;5054687;28;20084;-64
2023/12/11 03:12:37;;;;;;;20.65;4.88;;;12.00;81.20;;;;;;5054555;28;20100;-64
2023/12/11 03:15:07;;;;;;;17.65;4.25;;;12.00;81.20;;;;;;5035226;28;20070;-64
2023/12/11 03:17:33;;;;;;;18.05;3.80;;;12.00;81.40;;;;;;5051183;28;20341;-64
2023/12/11 03:20:00;;;;;;;18.77;4.68;;;11.90;81.50;;;;;;5052968;28;20111;-64
2023/12/11 03:22:27;;;;;;;18.90;4.18;;;11.90;82.30;;;;;;5010474;28;20116;-64
2023/12/11 03:24:53;;;;;;;15.23;3.40;;;11.90;81.80;;;;;;5053608;28;20110;-64
2023/12/11 03:27:22;;;;;;;15.85;3.97;;;11.90;82.00;;;;;;5053818;28;20447;-64
2023/12/11 03:29:49;;;;;;;16.10;3.72;;;11.90;82.10;;;;;;5055403;28;20036;-63
2023/12/11 03:32:15;;;;;;;13.20;3.05;;;11.90;82.20;;;;;;5052978;28;20517;-64
2023/12/11 03:34:41;;;;;;;13.55;3.03;;;11.90;82.20;;;;;;5054112;28;20112;-64
2023/12/11 03:37:10;;;;;;;14.60;3.38;;;11.90;82.20;;;;;;5035533;28;20508;-64
2023/12/11 03:39:35;;;;;;;14.05;3.75;;;11.90;82.30;;;;;;5033302;28;20064;-64
2023/12/11 03:42:01;;;;;;;13.75;2.78;;;11.90;82.20;;;;;;5053364;28;20053;-64
2023/12/11 03:44:27;;;;;;;16.27;3.15;;;11.90;82.10;;;;;;5053097;28;20021;-64
2023/12/11 03:46:53;;;;;;;16.10;3.58;;;11.90;82.10;;;;;;5051457;28;20021;-64
2023/12/11 03:49:20;;;;;;;21.98;3.85;;;11.80;82.00;;;;;;5051884;28;20033;-64
2023/12/11 03:51:46;;;;;;;14.70;3.92;;;11.90;82.00;;;;;;5036436;28;20032;-64
2023/12/11 03:54:12;;;;;;;17.58;3.72;;;11.90;81.90;;;;;;5016075;28;20194;-64
2023/12/11 03:56:39;;;;;;;14.07;2.92;;;11.90;81.90;;;;;;5053719;28;20033;-64
2023/12/11 03:59:05;;;;;;;12.63;2.65;;;11.90;81.90;;;;;;5053227;28;20120;-64
2023/12/11 04:01:31;;;;;;;11.52;3.15;;;11.80;81.80;;;;;;5054550;28;20032;-64
2023/12/11 04:03:59;;;;;;;15.15;3.10;;;11.90;81.80;;;;;;5057678;28;20029;-64
2023/12/11 04:06:24;;;;;;;13.85;3.13;;;11.90;81.80;;;;;;5057980;28;20017;-64
2023/12/11 04:08:50;;;;;;;10.57;2.67;;;11.90;81.80;;;;;;5057026;28;20315;-64
2023/12/11 04:11:16;;;;;;;13.70;3.70;;;11.90;81.70;;;;;;5039529;28;20122;-64
2023/12/11 04:13:43;;;;;;;12.57;3.28;;;11.90;81.70;;;;;;5053468;28;20029;-64
2023/12/11 04:16:09;;;;;;;12.88;3.33;;;11.90;81.60;;;;;;5048912;28;20053;-64
2023/12/11 04:18:36;;;;;;;12.50;2.72;;;11.90;81.50;;;;;;5056790;28;20040;-63
2023/12/11 04:21:02;;;;;;;17.95;3.13;;;11.90;81.50;;;;;;5056623;28;20497;-64
2023/12/11 04:23:28;;;;;;;12.13;3.15;;;11.90;82.10;;;;;;5057757;28;20033;-64
2023/12/11 04:25:58;;;;;;;16.75;3.28;;;11.90;81.50;;;;;;5056209;28;20036;-64
2023/12/11 04:28:27;;;;;;;20.30;3.33;;;11.90;81.50;;;;;;5058198;28;20029;-63
2023/12/11 04:30:53;;;;;;;12.18;2.70;;;11.90;81.60;;;;;;5055998;28;20430;-64
2023/12/11 04:33:19;;;;;;;15.60;3.50;;;11.90;81.60;;;;;;5046463;28;20446;-64
2023/12/11 04:35:45;;;;;;;16.23;3.63;;;11.90;81.70;;;;;;5057893;28;20013;-64
2023/12/11 04:38:11;;;;;;;14.50;3.45;;;11.90;81.70;;;;;;5056498;28;20028;-64
2023/12/11 04:40:37;;;;;;;15.75;3.55;;;11.90;81.70;;;;;;5056873;28;20104;-64
2023/12/11 04:43:04;;;;;;;14.93;3.42;;;12.00;81.80;;;;;;5041115;28;20505;-64
2023/12/11 04:45:29;;;;;;;16.10;3.45;;;11.90;81.70;;;;;;5052935;28;21638;-63
2023/12/11 04:47:56;;;;;;;14.02;3.92;;;12.00;81.80;;;;;;5053074;28;20056;-64
2023/12/11 04:50:22;;;;;;;15.40;3.53;;;12.00;81.80;;;;;;5036579;28;20032;-64
2023/12/11 04:52:48;;;;;;;22.77;4.22;;;11.90;81.80;;;;;;5048674;28;20450;-64
2023/12/11 04:55:14;;;;;;;17.95;4.15;;;12.00;81.80;;;;;;5044399;28;20053;-64
2023/12/11 04:57:40;;;;;;;19.25;3.72;;;12.00;81.70;;;;;;5044724;28;20077;-64
2023/12/11 05:00:07;;;;;;;14.60;2.83;;;12.00;81.70;;;;;;5036215;28;20026;-64
2023/12/11 05:02:33;;;;;;;16.02;3.13;;;12.00;81.70;;;;;;5039851;28;20399;-64
2023/12/11 05:04:58;;;;;;;22.67;4.30;;;12.00;81.70;;;;;;5021089;28;20022;-64
2023/12/11 05:07:24;;;;;;;22.15;4.60;;;12.00;81.60;;;;;;5038200;28;20037;-63
2023/12/11 05:09:50;;;;;;;13.57;3.80;;;12.00;81.60;;;;;;5043626;28;20451;-64
2023/12/11 05:12:16;;;;;;;20.00;3.38;;;12.00;81.70;;;;;;5039284;28;20107;-64
2023/12/11 05:14:42;;;;;;;16.48;3.33;;;12.00;81.60;;;;;;5038838;28;20043;-64
2023/12/11 05:17:07;;;;;;;16.15;3.70;;;12.00;81.60;;;;;;5040337;28;20022;-64
2023/12/11 05:19:35;;;;;;;24.27;4.38;;;12.00;81.60;;;;;;5043350;28;20121;-64
2023/12/11 05:22:02;;;;;;;19.83;3.90;;;12.00;81.60;;;;;;5022140;28;20028;-64
2023/12/11 05:24:27;;;;;;;17.73;3.63;;;12.00;81.60;;;;;;5037285;28;20073;-64
2023/12/11 05:26:57;;;;;;;18.25;3.92;;;11.90;81.60;;;;;;5022772;28;20107;-64
2023/12/11 05:29:23;;;;;;;17.58;3.30;;;12.00;81.60;;;;;;5038424;28;20029;-64
2023/12/11 05:31:49;;;;;;;25.67;4.95;;;12.00;81.60;;;;;;5041149;28;20473;-64
2023/12/11 05:34:15;;;;;;;16.15;3.65;;;12.00;81.60;;;;;;5037260;28;20481;-64
2023/12/11 05:36:41;;;;;;;19.00;4.10;;;12.00;81.60;;;;;;5037748;28;20121;-64
2023/12/11 05:39:09;;;;;;;21.75;3.60;;;12.00;81.70;;;;;;5042417;28;20339;-64
2023/12/11 05:41:35;;;;;;;17.98;4.10;;;12.00;81.60;;;;;;5035954;28;20033;-63
2023/12/11 05:44:01;;;;;;;20.50;4.15;;;12.00;81.60;;;;;;5043260;28;20025;-64
2023/12/11 05:46:27;;;;;;;19.63;3.88;;;12.00;81.70;;;;;;5040369;28;20392;-64
2023/12/11 05:48:53;;;;;;;17.02;3.95;;;12.00;81.60;;;;;;5038801;28;20028;-64
2023/12/11 05:51:19;;;;;;;16.70;3.72;;;12.00;81.50;;;;;;5021537;28;20056;-64
2023/12/11 05:53:44;;;;;;;15.48;3.45;;;12.00;81.50;;;;;;5035324;28;20029;-64
2023/12/11 05:56:10;;;;;;;21.77;3.83;;;12.00;81.50;;;;;;5041222;28;20074;-64
2023/12/11 05:58:36;;;;;;;15.93;3.45;;;11.90;82.20;;;;;;5038287;28;20044;-64
2023/12/11 06:01:02;;;;;;;17.48;3.55;;;11.90;81.50;;;;;;5039700;28;20041;-64
2023/12/11 06:03:28;;;;;;;16.20;3.58;;;11.90;81.60;;;;;;5040114;28;20035;-64
2023/12/11 06:05:57;;;;;;;20.80;4.65;;;11.90;81.60;;;;;;5039097;28;20350;-63
2023/12/11 06:08:26;;;;;;;23.20;4.65;;;11.90;81.60;;;;;;5053873;28;20025;-64
2023/12/11 06:10:53;;;;;;;15.88;4.45;;;12.00;81.50;;;;;;5054897;28;20112;-64
2023/12/11 06:13:19;;;;;;;18.27;3.45;;;12.00;81.50;;;;;;5038008;28;20064;-64
2023/12/11 06:15:44;;;;;;;16.85;3.35;;;12.00;81.40;;;;;;5054163;28;20065;-64
2023/12/11 06:18:10;;;;;;;21.33;3.65;;;12.00;81.40;;;;;;5053950;28;20089;-63
2023/12/11 06:20:36;;;;;;;14.85;3.33;;;12.00;81.30;;;;;;5053937;28;20035;-64
2023/12/11 06:23:02;;;;;;;14.63;2.90;;;12.00;81.40;;;;;;5037385;28;20021;-64
2023/12/11 06:25:28;;;;;;;18.00;3.17;;;12.00;81.50;;;;;;5054477;28;20041;-64
2023/12/11 06:27:53;;;;;;;15.35;3.40;;;11.90;81.40;;;;;;5050865;28;20028;-63
2023/12/11 06:30:21;;;;;;;14.60;3.28;;;11.90;81.50;;;;;;5053137;28;20414;-64
2023/12/11 06:32:46;;;;;;;16.95;3.50;;;11.90;82.10;;;;;;5034268;28;20133;-64
2023/12/11 06:35:13;;;;;;;15.98;3.67;;;11.90;81.50;;;;;;5052891;28;20120;-64
2023/12/11 06:37:38;;;;;;;18.23;3.20;;;11.90;81.50;;;;;;5052357;28;20079;-64
2023/12/11 06:40:05;;;;;;;13.60;2.97;;;11.90;81.50;;;;;;5053646;28;20025;-64
2023/12/11 06:42:37;;;;;;;17.50;4.05;;;11.90;81.60;;;;;;5053085;28;20033;-65
2023/12/11 06:45:04;;;;;;;13.52;3.05;;;11.90;81.70;;;;;;5053232;28;20100;-64
2023/12/11 06:47:29;;;;;;;14.02;3.03;;;11.90;81.70;;;;;;5052230;28;20111;-64
2023/12/11 06:49:55;;;;;;;14.77;2.92;;;11.90;81.90;;;;;;5053027;28;20490;-64
2023/12/11 06:52:21;;;;;;;16.17;3.63;;;11.90;82.00;;;;;;5055046;28;20052;-64
2023/12/11 06:54:47;;;;;;;19.10;4.05;;;11.80;82.00;;;;;;5041425;28;20071;-64
2023/12/11 06:57:13;;;;;;;14.25;2.90;;;11.80;82.10;;;;;;5066611;28;20445;-64
2023/12/11 06:59:38;;;;;;;16.42;3.75;;;11.80;82.10;;;;;;5055718;28;20033;-64
2023/12/11 07:02:04;;;;;;;18.63;3.88;;;11.80;82.00;;;;;;5054391;28;20030;-64
2023/12/11 07:04:30;;;;;;;15.20;3.00;;;11.80;82.10;;;;;;5037599;28;20016;-64
2023/12/11 07:06:56;;;;;;;17.02;3.08;;;11.80;82.10;;;;;;5054052;28;20461;-64
2023/12/11 07:09:22;;;;;;;14.18;4.18;;;11.80;82.10;;;;;;5054406;28;20403;-64
2023/12/11 07:11:48;;;;;;;15.02;3.72;;;11.80;82.00;;;;;;5053447;28;20442;-64
2023/12/11 07:14:14;;;;;;;14.48;2.88;;;11.80;82.10;;;;;;5034956;28;20074;-64
2023/12/11 07:16:39;;;;;;;13.90;3.25;;;11.80;82.00;;;;;;5053898;28;20075;-64
2023/12/11 07:19:06;;;;;;;16.58;4.10;;;11.80;82.00;;;;;;5053630;28;20025;-64
2023/12/11 07:21:32;;;;;;;16.13;3.20;;;11.80;82.00;;;;;;5054513;28;20037;-64
2023/12/11 07:23:58;;;;;;;15.95;3.08;;;11.80;82.10;;;;;;5052846;28;20044;-64
2023/12/11 07:26:24;;;;;;;12.68;3.15;;;11.70;82.10;;;;;;5049880;28;20427;-64
2023/12/11 07:28:49;;;;;;;13.75;3.45;;;11.70;82.00;;;;;;5051046;28;20025;-63
2023/12/11 07:31:15;;;;;;;11.57;3.42;;;11.80;82.00;;;;;;5054877;28;20021;-64
2023/12/11 07:33:41;;;;;;;13.18;2.90;;;11.80;82.00;;;;;;5052485;28;20484;-63
2023/12/11 07:36:07;;;;;;;17.90;3.45;;;11.80;81.90;;;;;;5035546;28;20082;-64
2023/12/11 07:38:33;;;;;;;14.60;2.70;;;11.80;81.90;;;;;;5055874;28;20037;-65
2023/12/11 07:40:59;;;;;;;12.38;3.15;;;11.70;81.90;;;;;;5053077;28;20036;-65
2023/12/11 07:43:25;;;;;;;9.85;2.10;;;11.80;82.00;;;;;;5052115;28;20025;-65
2023/12/11 07:45:51;;;;;;;10.75;2.78;;;11.80;82.10;;;;;;5052070;28;20362;-65
2023/12/11 07:48:17;;;;;;;14.10;3.13;;;11.70;82.10;;;;;;5052133;28;20028;-64
2023/12/11 07:50:43;;;;;;;13.45;2.95;;;11.70;82.20;;;;;;5051904;28;20045;-65
2023/12/11 07:53:08;;;;;;;15.75;3.08;;;11.70;82.20;;;;;;5052102;28;20030;-65
2023/12/11 07:55:35;;;;;;;15.40;3.40;;;11.70;82.30;;;;;;5051119;28;20041;-66
2023/12/11 07:58:02;;;;;;;12.45;3.33;;;11.70;82.40;;;;;;5053128;28;20025;-65
2023/12/11 08:00:29;;;;;;;14.20;2.75;;;11.70;82.40;;;;;;5053221;28;20033;-65
2023/12/11 08:02:54;;;;;;;11.07;2.70;;;11.70;82.30;;;;;;5052298;28;20044;-66
2023/12/11 08:05:20;;;;;;;13.40;2.72;;;11.70;82.30;;;;;;5030919;28;20025;-66
2023/12/11 08:07:46;;;;;;;11.13;2.25;;;11.70;82.30;;;;;;5052165;28;20021;-65
2023/12/11 08:10:12;;;;;;;12.88;2.55;;;11.70;82.30;;;;;;5051029;28;20025;-65
2023/12/11 08:12:38;;;;;;;9.75;2.33;;;11.70;82.20;;;;;;5049102;28;20029;-65
2023/12/11 08:15:04;;;;;;;12.05;2.20;;;11.70;82.10;;;;;;5051036;28;20424;-65
2023/12/11 08:17:30;;;;;;;10.23;2.45;;;11.70;82.10;;;;;;5052686;28;20100;-64
2023/12/11 08:19:55;;;;;;;8.68;2.50;;;11.70;82.10;;;;;;5051326;28;20405;-65
2023/12/11 08:22:22;;;;;;;13.15;2.22;;;11.70;82.10;;;;;;5052119;28;20104;-66
2023/12/11 08:24:47;;;;;;;7.88;1.75;;;11.70;82.10;;;;;;5033651;28;20458;-64
2023/12/11 08:27:14;;;;;;;8.88;2.17;;;11.70;82.20;;;;;;5052862;28;20018;-65
2023/12/11 08:29:40;;;;;;;9.43;2.50;;;11.60;82.30;;;;;;5053153;28;20017;-64
2023/12/11 08:32:06;;;;;;;6.97;2.13;;;11.60;82.30;;;;;;5050790;28;20083;-65
2023/12/11 08:34:32;;;;;;;6.43;1.67;;;11.60;82.20;;;;;;5051222;28;20052;-64
2023/12/11 08:36:57;;;;;;;7.68;2.30;;;11.60;82.30;;;;;;5032928;28;20446;-65
2023/12/11 08:39:23;;;;;;;10.18;2.00;;;11.60;82.30;;;;;;5034034;28;20357;-65
2023/12/11 08:41:50;;;;;;;10.38;2.20;;;11.60;82.30;;;;;;5051962;28;20085;-64
2023/12/11 08:44:16;;;;;;;8.25;1.83;;;11.60;82.40;;;;;;5051667;28;20442;-64
2023/12/11 08:46:43;;;;;;;8.30;1.95;;;11.60;82.30;;;;;;5054678;28;20021;-65
2023/12/11 08:49:10;;;;;;;9.75;2.58;;;11.60;82.40;;;;;;5057344;28;20040;-65
2023/12/11 08:51:36;;;;;;;9.75;2.72;;;11.60;82.40;;;;;;5056542;28;20020;-65
2023/12/11 08:54:02;;;;;;;7.57;1.95;;;11.60;82.40;;;;;;5056234;28;20029;-65
2023/12/11 08:56:27;;;;;;;8.80;1.88;;;11.60;82.40;;;;;;5056283;28;20033;-65
2023/12/11 08:58:53;;;;;;;6.45;2.00;;;11.50;82.40;;;;;;5055583;28;20029;-65
2023/12/11 09:01:19;;;;;;;6.10;1.67;;;11.60;82.50;;;;;;5039313;28;20155;-65
2023/12/11 09:03:46;;;;;;;10.45;1.98;;;11.60;82.40;;;;;;5055887;28;20029;-65
2023/12/11 09:06:15;;;;;;;9.30;1.92;;;11.60;82.40;;;;;;5056353;28;20329;-65
2023/12/11 09:08:41;;;;;;;12.88;2.53;;;11.60;82.30;;;;;;5055719;28;20025;-65
2023/12/11 09:11:07;;;;;;;9.52;2.53;;;11.60;82.10;;;;;;5039241;28;20446;-65
2023/12/11 09:13:33;;;;;;;10.77;2.05;;;11.70;81.90;;;;;;5056201;28;20099;-65
2023/12/11 09:15:58;;;;;;;7.60;2.08;;;11.70;81.70;;;;;;5057253;28;20031;-65
2023/12/11 09:18:24;;;;;;;6.88;1.88;;;11.70;81.50;;;;;;5054872;28;20029;-65
2023/12/11 09:20:50;;;;;;;8.73;1.98;;;11.80;81.40;;;;;;5056962;28;20029;-65
2023/12/11 09:23:16;;;;;;;8.60;2.47;;;11.80;81.30;;;;;;5056747;28;20056;-65
2023/12/11 09:25:42;;;;;;;7.45;1.75;;;11.80;81.10;;;;;;5039322;28;20033;-65
2023/12/11 09:28:08;;;;;;;7.13;1.88;;;11.90;81.10;;;;;;5056956;28;20035;-66
2023/12/11 09:30:34;;;;;;;9.63;2.50;;;11.90;80.90;;;;;;5051251;28;20116;-64
2023/12/11 09:33:00;;;;;;;11.02;2.20;;;11.90;80.70;;;;;;5054855;28;20037;-66
2023/12/11 09:35:25;;;;;;;7.22;1.77;;;11.90;80.50;;;;;;5054555;28;20033;-64
2023/12/11 09:37:51;;;;;;;8.73;2.00;;;11.90;80.50;;;;;;5056230;28;20037;-66
2023/12/11 09:40:18;;;;;;;7.53;1.88;;;11.90;80.30;;;;;;5052574;28;20026;-66
2023/12/11 09:42:45;;;;;;;8.25;2.33;;;12.00;80.30;;;;;;5054773;28;20036;-65
2023/12/11 09:45:12;;;;;;;4.85;1.60;;;11.90;80.10;;;;;;5037502;28;20030;-65
2023/12/11 09:47:46;;;;;;;7.78;1.80;;;11.90;80.00;;;;;;5038052;28;20106;-65
2023/12/11 09:50:13;;;;;;;6.22;1.58;;;11.90;79.80;;;;;;5052821;28;20462;-65
2023/12/11 09:52:42;;;;;;;7.10;2.60;;;11.90;79.80;;;;;;5054520;28;20036;-65
2023/12/11 09:55:09;;;;;;;5.75;1.95;;;12.00;79.70;;;;;;5055670;28;20418;-65
2023/12/11 09:57:40;;;;;;;7.25;1.75;;;12.00;79.60;;;;;;5051200;28;20043;-65
2023/12/11 10:00:09;;;;;;;6.78;1.92;;;11.90;79.50;;;;;;5053375;28;20037;-65
2023/12/11 10:02:37;;;;;;;10.13;2.00;;;11.90;79.40;;;;;;5037777;28;20040;-65
2023/12/11 10:05:10;;;;;;;9.95;2.13;;;12.00;79.40;;;;;;5053475;28;20063;-66
2023/12/11 10:07:41;;;;;;;8.82;1.75;;;12.00;79.20;;;;;;5055438;28;20346;-66
2023/12/11 10:10:30;;;;;;;6.32;1.67;;;12.00;79.80;;;;;;5040431;28;20029;-67
2023/12/11 10:12:56;;;;;;;9.77;1.88;;;12.00;79.00;;;;;;5036443;28;20029;-66
2023/12/11 10:15:28;;;;;;;8.52;1.90;;;12.00;78.90;;;;;;5055042;28;20025;-67
2023/12/11 10:18:06;;;;;;;8.98;1.85;;;12.00;78.80;;;;;;5055974;28;20370;-67
2023/12/11 10:20:33;;;;;;;10.85;2.30;;;12.00;78.70;;;;;;5054910;28;20366;-67
2023/12/11 10:23:09;;;;;;;8.48;2.35;;;11.90;78.80;;;;;;5054620;28;20450;-66
2023/12/11 10:25:36;;;;;;;5.15;1.73;;;11.90;78.90;;;;;;5052620;28;20099;-66
2023/12/11 10:28:10;;;;;;;8.68;2.28;;;11.90;78.90;;;;;;5055906;28;20021;-67
2023/12/11 10:30:51;;;;;;;15.10;3.03;;;11.80;79.00;;;;;;5055832;28;20107;-66
2023/12/11 10:33:18;;;;;;;11.80;2.25;;;11.80;79.10;;;;;;5054096;28;20025;-66
2023/12/11 10:35:45;;;;;;;8.27;2.30;;;11.80;79.80;;;;;;5054842;28;20043;-66
2023/12/11 10:38:11;;;;;;;9.57;2.47;;;11.80;79.20;;;;;;5054762;28;20060;-66
2023/12/11 10:40:41;;;;;;;7.55;2.30;;;11.80;79.20;;;;;;5055352;28;20044;-66
2023/12/11 10:43:07;;;;;;;10.38;2.60;;;11.80;79.30;;;;;;5037022;28;20028;-66
2023/12/11 10:45:33;;;;;;;8.77;2.78;;;11.80;79.30;;;;;;5055408;28;20029;-67
2023/12/11 10:48:01;;;;;;;10.35;2.05;;;11.80;79.40;;;;;;5054766;28;20029;-66
2023/12/11 10:50:27;;;;;;;16.63;2.72;;;11.80;79.30;;;;;;5054952;28;20041;-66
2023/12/11 10:52:53;;;;;;;10.65;2.20;;;11.80;79.30;;;;;;5054498;28;20032;-67
2023/12/11 10:55:19;;;;;;;12.27;2.33;;;11.80;79.20;;;;;;5014893;28;20483;-66
2023/12/11 10:57:45;;;;;;;9.43;2.50;;;11.80;79.30;;;;;;5050771;28;20064;-66
2023/12/11 11:00:14;;;;;;;9.70;3.25;;;11.80;79.30;;;;;;5055494;28;20071;-66
2023/12/11 11:02:44;;;;;;;8.43;2.58;;;11.80;79.30;;;;;;5053661;28;20370;-66
2023/12/11 11:05:15;;;;;;;13.07;2.40;;;11.80;79.20;;;;;;5051682;28;20103;-66
2023/12/11 11:07:56;;;;;;;10.65;2.88;;;11.80;79.20;;;;;;5031491;28;20029;-66
2023/12/11 11:10:27;;;;;;;9.35;2.47;;;11.90;79.10;;;;;;5053978;28;20017;-66
2023/12/11 11:13:01;;;;;;;;;;;11.90;79.10;;;;;;5052850;28;20025;-66
2023/12/11 11:15:27;;;;;;;9.73;2.38;;;11.90;79.10;;;;;;5053281;28;19993;-67
2023/12/11 11:18:05;;;;;;;12.63;2.45;;;11.90;79.10;;;;;;5053821;28;20071;-66
2023/12/11 11:20:39;;;;;;;8.80;2.42;;;11.90;78.90;;;;;;5053690;28;20453;-66
2023/12/11 11:23:16;;;;;;;11.35;2.78;;;11.90;78.90;;;;;;5054573;28;20029;-66
2023/12/11 11:25:50;;;;;;;15.68;3.00;;;11.80;79.10;;;;;;5052389;28;20492;-66
2023/12/11 11:28:40;;;;;;;7.88;2.13;;;11.80;79.20;;;;;;5054710;28;20484;-67
2023/12/11 11:31:07;;;;;;;9.07;2.13;;;11.80;79.50;;;;;;5054479;28;20017;-66
2023/12/11 11:33:49;;;;;;;10.73;2.60;;;11.80;79.60;;;;;;5054378;28;20044;-67
2023/12/11 11:36:21;;;;;;;7.95;1.88;;;11.80;79.60;;;;;;5049824;28;20036;-66
2023/12/11 11:38:57;;;;;;;10.82;2.63;;;11.80;79.60;;;;;;5054296;28;20037;-67
2023/12/11 11:41:30;;;;;;;9.23;2.50;;;11.80;79.60;;;;;;5054551;28;20171;-66
2023/12/11 11:44:06;;;;;;;10.88;2.72;;;11.90;79.70;;;;;;5053537;28;20071;-66
2023/12/11 11:46:55;;;;;;;11.77;2.80;;;11.90;79.50;;;;;;5055428;28;20028;-67
2023/12/11 11:49:31;;;;;;;7.50;1.80;;;12.00;79.40;;;;;;5059210;28;20104;-66
2023/12/11 11:51:58;;;;;;;8.63;1.80;;;12.00;79.30;;;;;;5063539;28;20033;-66
2023/12/11 11:54:25;;;;;;;8.05;2.17;;;12.10;79.80;;;;;;5074500;28;20337;-66
2023/12/11 11:56:51;;;;;;;8.63;2.05;;;12.10;78.90;;;;;;5058351;28;20033;-66
2023/12/11 11:59:17;;;;;;;9.27;2.05;;;12.20;78.80;;;;;;5073682;28;20090;-67
2023/12/11 12:01:50;;;;;;;6.15;1.98;;;12.20;78.50;;;;;;5074280;28;20334;-66
2023/12/11 12:04:34;;;;;;;7.43;1.92;;;12.20;78.00;;;;;;5074032;28;20103;-66
2023/12/11 12:07:06;;;;;;;8.18;1.50;;;12.20;77.60;;;;;;5057984;28;20021;-67
2023/12/11 12:09:33;;;;;;;9.63;1.42;;;12.10;77.60;;;;;;5055619;28;20021;-67
2023/12/11 12:12:00;;;;;;;7.30;2.22;;;12.10;77.60;;;;;;5058040;28;20465;-66
2023/12/11 12:14:26;;;;;;;9.75;2.63;;;12.10;77.40;;;;;;5035544;28;20020;-65
2023/12/11 12:16:53;;;;;;;6.07;1.73;;;12.00;77.10;;;;;;5035642;28;20542;-65
2023/12/11 12:19:31;;;;;;;9.70;2.03;;;12.00;77.00;;;;;;5058526;28;20025;-65
2023/12/11 12:21:58;;;;;;;5.25;1.38;;;12.00;76.80;;;;;;5054180;28;20449;-65
2023/12/11 12:24:25;;;;;;;9.20;2.25;;;12.00;76.80;;;;;;5056867;28;20033;-65
2023/12/11 12:27:01;;;;;;;7.72;1.70;;;12.00;76.60;;;;;;5055698;28;20022;-66
2023/12/11 12:29:30;;;;;;;8.57;2.33;;;12.00;76.40;;;;;;5048145;28;20379;-67
2023/12/11 12:31:58;;;;;;;8.57;1.80;;;12.00;76.30;;;;;;5057217;28;20029;-67
2023/12/11 12:34:25;;;;;;;11.65;2.35;;;12.00;76.10;;;;;;5057989;28;20021;-67
2023/12/11 12:36:54;;;;;;;9.73;2.08;;;12.10;76.10;;;;;;5057512;28;20037;-68
2023/12/11 12:39:23;;;;;;;6.97;1.50;;;12.00;75.90;;;;;;5049793;28;20048;-67
2023/12/11 12:41:49;;;;;;;6.82;1.95;;;12.00;75.90;;;;;;5051673;28;20029;-67